MMCP/CPE METAR and TAF weather

Enter ICAO airport designator
Station Type Date Time Source
MMCP METAR 2019/12/07 16:43 UTC NOAA

MMCP 071643Z 10005KT 7SM SKC 26/19 A3017


Station Type Date Time Source
MMCP Decoded METAR 2019/12/07 16:43 UTC NOAA

Campeche, Camp., Mexico (MMCP) 19-51N 090-33W
Dec 07, 2019 - 11:43 AM EST / 2019.12.07 1643 UTC
Wind: from the E (100 degrees) at 6 MPH (5 KT):0
Visibility: 7 mile(s):0
Sky conditions: clear
Temperature: 78 F (26 C)
Dew Point: 66 F (19 C)
Relative Humidity: 65%
Pressure (altimeter): 30.17 in. Hg (1021 hPa)
ob: MMCP 071643Z 10005KT 7SM SKC 26/19 A3017
cycle: 16

Station Type Date Time Source
MMCP TAF 2019/12/07 18:36 UTC NOAA

TAF MMCP 071632Z 0718/0818 34012KT P6SM SKC
FM080400 07010KT P6SM SCT010
BECMG 0809/0810 09008KT 3SM BR
FM081500 07008KT P6SM SCT015

Example: see airport list